4XARY LLHA-LLHA
Flight info
| Callsign | 4XARY |
|---|---|
| Flight time | 0h 7m |
| Altitude | 3000 |
| Route | CVFR |
| Aircraft | C152/L-VD/A |
Departure
| Time | 2026-04-25 14:00 |
|---|---|
| Airport | Uri Michaeli Haifa International Airport (LLHA) |
Arrival
| Time | 2026-04-25 14:08 |
|---|---|
| Airport | Uri Michaeli Haifa International Airport (LLHA) |
| Time | Latitude | Longitude | Altitude | Speed | Heading |
|---|---|---|---|---|---|
| 2026-04-25 13:51 | 32.81534 | 35.04368 | 21 ft | 0 kts | 250° |
| 2026-04-25 13:54 | 32.81526 | 35.04345 | 21 ft | 8 kts | 249° |
| 2026-04-25 13:55 | 32.81500 | 35.04311 | 22 ft | 5 kts | 195° |
| 2026-04-25 13:55 | 32.81482 | 35.04270 | 23 ft | 5 kts | 249° |
| 2026-04-25 13:55 | 32.81481 | 35.04266 | 23 ft | 0 kts | 249° |
| 2026-04-25 13:57 | 32.81455 | 35.04193 | 24 ft | 6 kts | 219° |
| 2026-04-25 13:58 | 32.81364 | 35.04224 | 23 ft | 20 kts | 160° |
| 2026-04-25 13:58 | 32.81186 | 35.04299 | 22 ft | 28 kts | 160° |
| 2026-04-25 13:58 | 32.80972 | 35.04394 | 22 ft | 32 kts | 158° |
| 2026-04-25 13:58 | 32.80758 | 35.04488 | 20 ft | 34 kts | 161° |
| 2026-04-25 13:59 | 32.80611 | 35.04561 | 19 ft | 10 kts | 167° |
| 2026-04-25 13:59 | 32.80632 | 35.04543 | 19 ft | 12 kts | 349° |
| 2026-04-25 13:59 | 32.80843 | 35.04451 | 21 ft | 58 kts | 339° |
| 2026-04-25 13:59 | 32.81302 | 35.04245 | 106 ft | 76 kts | 338° |
| 2026-04-25 14:00 | 32.81637 | 35.04092 | 231 ft | 76 kts | 338° |
| 2026-04-25 14:00 | 32.82290 | 35.03834 | 490 ft | 74 kts | 8° |
| 2026-04-25 14:00 | 32.82658 | 35.04250 | 626 ft | 81 kts | 58° |
| 2026-04-25 14:00 | 32.82927 | 35.04826 | 805 ft | 78 kts | 76° |
| 2026-04-25 14:01 | 32.82768 | 35.05421 | 942 ft | 83 kts | 145° |
| 2026-04-25 14:01 | 32.82210 | 35.05731 | 950 ft | 96 kts | 159° |
| 2026-04-25 14:01 | 32.81565 | 35.06028 | 938 ft | 102 kts | 162° |
| 2026-04-25 14:01 | 32.80927 | 35.06164 | 847 ft | 82 kts | 200° |
| 2026-04-25 14:02 | 32.80591 | 35.05681 | 596 ft | 81 kts | 240° |
| 2026-04-25 14:02 | 32.80342 | 35.05085 | 323 ft | 80 kts | 263° |
| 2026-04-25 14:02 | 32.80570 | 35.04558 | 86 ft | 76 kts | 344° |
| 2026-04-25 14:02 | 32.80737 | 35.04496 | 34 ft | 71 kts | 338° |
| 2026-04-25 14:03 | 32.81456 | 35.04143 | 167 ft | 73 kts | 335° |
| 2026-04-25 14:03 | 32.81925 | 35.03903 | 350 ft | 75 kts | 333° |
| 2026-04-25 14:03 | 32.82405 | 35.03714 | 559 ft | 73 kts | 11° |
| 2026-04-25 14:03 | 32.82743 | 35.04217 | 643 ft | 84 kts | 62° |
| 2026-04-25 14:04 | 32.83011 | 35.04836 | 785 ft | 85 kts | 63° |
| 2026-04-25 14:04 | 32.82865 | 35.05406 | 924 ft | 85 kts | 152° |
| 2026-04-25 14:04 | 32.82314 | 35.05752 | 1001 ft | 91 kts | 150° |
| 2026-04-25 14:04 | 32.81730 | 35.06151 | 986 ft | 101 kts | 152° |
| 2026-04-25 14:05 | 32.81092 | 35.06546 | 951 ft | 106 kts | 155° |
| 2026-04-25 14:05 | 32.80430 | 35.06947 | 892 ft | 108 kts | 153° |
| 2026-04-25 14:05 | 32.79819 | 35.07393 | 935 ft | 103 kts | 147° |
| 2026-04-25 14:05 | 32.79205 | 35.07850 | 895 ft | 102 kts | 154° |
| 2026-04-25 14:06 | 32.78530 | 35.08003 | 942 ft | 98 kts | 182° |
| 2026-04-25 14:06 | 32.77852 | 35.07906 | 924 ft | 101 kts | 193° |
| 2026-04-25 14:06 | 32.77341 | 35.07438 | 945 ft | 98 kts | 254° |
| 2026-04-25 14:06 | 32.77561 | 35.06651 | 793 ft | 101 kts | 306° |
| 2026-04-25 14:07 | 32.77963 | 35.06064 | 694 ft | 85 kts | 313° |
| 2026-04-25 14:07 | 32.78374 | 35.05592 | 649 ft | 83 kts | 316° |
| 2026-04-25 14:07 | 32.78852 | 35.05167 | 514 ft | 93 kts | 332° |
| 2026-04-25 14:07 | 32.79428 | 35.05001 | 321 ft | 79 kts | 355° |
| 2026-04-25 14:08 | 32.79952 | 35.04828 | 193 ft | 72 kts | 339° |
| 2026-04-25 14:08 | 32.80374 | 35.04651 | 61 ft | 57 kts | 339° |
| 2026-04-25 14:08 | 32.80706 | 35.04510 | 20 ft | 44 kts | 339° |
| 2026-04-25 14:08 | 32.81073 | 35.04344 | 69 ft | 68 kts | 339° |
| 2026-04-25 14:09 | 32.81548 | 35.04132 | 206 ft | 77 kts | 338° |
| 2026-04-25 14:09 | 32.82041 | 35.03890 | 380 ft | 78 kts | 336° |
| 2026-04-25 14:09 | 32.82525 | 35.03728 | 617 ft | 70 kts | 5° |
| 2026-04-25 14:09 | 32.82687 | 35.03789 | 651 ft | 75 kts | 27° |
| 2026-04-25 14:10 | 32.83053 | 35.04796 | 833 ft | 85 kts | 80° |
| 2026-04-25 14:10 | 32.82893 | 35.05425 | 967 ft | 89 kts | 130° |
| 2026-04-25 14:10 | 32.82345 | 35.05847 | 976 ft | 98 kts | 154° |
| 2026-04-25 14:10 | 32.81731 | 35.06219 | 1006 ft | 100 kts | 154° |
| 2026-04-25 14:11 | 32.81120 | 35.06566 | 1023 ft | 97 kts | 157° |
| 2026-04-25 14:11 | 32.80487 | 35.06878 | 1009 ft | 99 kts | 157° |
| 2026-04-25 14:11 | 32.79848 | 35.07229 | 919 ft | 103 kts | 159° |
| 2026-04-25 14:11 | 32.79383 | 35.07318 | 829 ft | 104 kts | 187° |
| 2026-04-25 14:12 | 32.78748 | 35.06996 | 790 ft | 102 kts | 218° |
| 2026-04-25 14:12 | 32.78265 | 35.06233 | 590 ft | 77 kts | 259° |
| 2026-04-25 14:12 | 32.78424 | 35.05696 | 492 ft | 74 kts | 302° |
| 2026-04-25 14:12 | 32.78752 | 35.05257 | 404 ft | 66 kts | 328° |
| 2026-04-25 14:13 | 32.79187 | 35.04999 | 418 ft | 72 kts | 341° |
| 2026-04-25 14:13 | 32.79515 | 35.04935 | 388 ft | 67 kts | 352° |
| 2026-04-25 14:13 | 32.79940 | 35.04827 | 252 ft | 59 kts | 340° |
| 2026-04-25 14:13 | 32.80328 | 35.04676 | 111 ft | 57 kts | 338° |
| 2026-04-25 14:14 | 32.80678 | 35.04523 | 21 ft | 46 kts | 340° |
| 2026-04-25 14:14 | 32.81021 | 35.04377 | 66 ft | 62 kts | 340° |
| 2026-04-25 14:14 | 32.81427 | 35.04188 | 240 ft | 66 kts | 333° |
| 2026-04-25 14:14 | 32.81889 | 35.03934 | 341 ft | 79 kts | 334° |
| 2026-04-25 14:15 | 32.82352 | 35.03730 | 610 ft | 68 kts | 7° |
| 2026-04-25 14:15 | 32.82629 | 35.03949 | 660 ft | 80 kts | 45° |
| 2026-04-25 14:15 | 32.83012 | 35.04711 | 876 ft | 78 kts | 92° |
| 2026-04-25 14:15 | 32.82700 | 35.05231 | 990 ft | 84 kts | 148° |
| 2026-04-25 14:16 | 32.82250 | 35.05696 | 1105 ft | 85 kts | 108° |
| 2026-04-25 14:16 | 32.82392 | 35.06395 | 1154 ft | 93 kts | 68° |
| 2026-04-25 14:16 | 32.82629 | 35.07120 | 1236 ft | 96 kts | 69° |
| 2026-04-25 14:16 | 32.82885 | 35.07854 | 1316 ft | 97 kts | 65° |
| 2026-04-25 14:17 | 32.83174 | 35.08572 | 1411 ft | 95 kts | 62° |
| 2026-04-25 14:17 | 32.83414 | 35.09319 | 1467 ft | 97 kts | 70° |
| 2026-04-25 14:17 | 32.83660 | 35.10072 | 1512 ft | 101 kts | 69° |
| 2026-04-25 14:17 | 32.83905 | 35.10854 | 1539 ft | 100 kts | 67° |
| 2026-04-25 14:18 | 32.84212 | 35.11596 | 1559 ft | 101 kts | 58° |
| 2026-04-25 14:18 | 32.84768 | 35.12047 | 1606 ft | 100 kts | 11° |
| 2026-04-25 14:18 | 32.85412 | 35.11989 | 1782 ft | 84 kts | 354° |
| 2026-04-25 14:18 | 32.85915 | 35.11986 | 2064 ft | 68 kts | 359° |
| 2026-04-25 14:19 | 32.86389 | 35.12016 | 2310 ft | 54 kts | 358° |
| 2026-04-25 14:19 | 32.86863 | 35.11986 | 2364 ft | 70 kts | 352° |
| 2026-04-25 14:19 | 32.87334 | 35.11926 | 2575 ft | 68 kts | 352° |
| 2026-04-25 14:19 | 32.87814 | 35.11864 | 2618 ft | 82 kts | 350° |
| 2026-04-25 14:20 | 32.88355 | 35.11829 | 2826 ft | 75 kts | 359° |
| 2026-04-25 14:20 | 32.88705 | 35.11891 | 2941 ft | 75 kts | 14° |
| 2026-04-25 14:20 | 32.89353 | 35.12024 | 3152 ft | 78 kts | 11° |
| 2026-04-25 14:20 | 32.89696 | 35.12521 | 3178 ft | 92 kts | 93° |
| 2026-04-25 14:21 | 32.89293 | 35.13022 | 3211 ft | 93 kts | 176° |
| 2026-04-25 14:21 | 32.88693 | 35.12970 | 3394 ft | 84 kts | 189° |
| 2026-04-25 14:21 | 32.88127 | 35.12861 | 3520 ft | 77 kts | 192° |
| 2026-04-25 14:21 | 32.87676 | 35.12752 | 3495 ft | 58 kts | 194° |
| 2026-04-25 14:22 | 32.87312 | 35.12650 | 3395 ft | 51 kts | 199° |
| 2026-04-25 14:22 | 32.86984 | 35.12520 | 3268 ft | 49 kts | 202° |
| 2026-04-25 14:22 | 32.86684 | 35.12362 | 3153 ft | 47 kts | 213° |
| 2026-04-25 14:22 | 32.86406 | 35.12173 | 3012 ft | 46 kts | 214° |
| 2026-04-25 14:23 | 32.86132 | 35.11976 | 2870 ft | 46 kts | 212° |
| 2026-04-25 14:23 | 32.85828 | 35.11968 | 2729 ft | 47 kts | 147° |
| 2026-04-25 14:23 | 32.85799 | 35.12311 | 2558 ft | 49 kts | 33° |
| 2026-04-25 14:23 | 32.86140 | 35.12335 | 2376 ft | 52 kts | 1° |
| 2026-04-25 14:24 | 32.86489 | 35.12345 | 2252 ft | 49 kts | 359° |
| 2026-04-25 14:24 | 32.86821 | 35.12330 | 2126 ft | 47 kts | 351° |
| 2026-04-25 14:24 | 32.87110 | 35.12291 | 1972 ft | 37 kts | 25° |
| 2026-04-25 14:24 | 32.87051 | 35.11805 | 1551 ft | 82 kts | 206° |
| 2026-04-25 14:25 | 32.86471 | 35.11865 | 1467 ft | 91 kts | 166° |
| 2026-04-25 14:25 | 32.85936 | 35.12080 | 1579 ft | 77 kts | 158° |
| 2026-04-25 14:25 | 32.85463 | 35.12388 | 1558 ft | 79 kts | 143° |
| 2026-04-25 14:25 | 32.85146 | 35.12643 | 1546 ft | 81 kts | 156° |
| 2026-04-25 14:26 | 32.84469 | 35.12890 | 1786 ft | 75 kts | 174° |
| 2026-04-25 14:26 | 32.83921 | 35.12851 | 1898 ft | 82 kts | 202° |
| 2026-04-25 14:26 | 32.83438 | 35.12432 | 1972 ft | 91 kts | 226° |
| 2026-04-25 14:26 | 32.83054 | 35.11809 | 1989 ft | 97 kts | 243° |
| 2026-04-25 14:27 | 32.82737 | 35.11066 | 1936 ft | 101 kts | 243° |
| 2026-04-25 14:27 | 32.82409 | 35.10301 | 1838 ft | 103 kts | 244° |
| 2026-04-25 14:27 | 32.82083 | 35.09551 | 1744 ft | 103 kts | 243° |
| 2026-04-25 14:27 | 32.81743 | 35.08791 | 1588 ft | 107 kts | 247° |
| 2026-04-25 14:28 | 32.81461 | 35.07987 | 1443 ft | 101 kts | 249° |
| 2026-04-25 14:28 | 32.81063 | 35.07333 | 1215 ft | 106 kts | 210° |
| 2026-04-25 14:28 | 32.80341 | 35.07176 | 892 ft | 100 kts | 179° |
| 2026-04-25 14:28 | 32.79720 | 35.07310 | 672 ft | 87 kts | 163° |
| 2026-04-25 14:29 | 32.79198 | 35.07353 | 588 ft | 75 kts | 202° |
| 2026-04-25 14:29 | 32.78740 | 35.06967 | 476 ft | 84 kts | 223° |
| 2026-04-25 14:29 | 32.78331 | 35.06495 | 456 ft | 80 kts | 230° |
| 2026-04-25 14:29 | 32.78231 | 35.05949 | 481 ft | 68 kts | 293° |
| 2026-04-25 14:30 | 32.78564 | 35.05523 | 419 ft | 74 kts | 319° |
| 2026-04-25 14:30 | 32.79373 | 35.04970 | 315 ft | 61 kts | 348° |
| 2026-04-25 14:30 | 32.79794 | 35.04885 | 250 ft | 58 kts | 345° |
| 2026-04-25 14:31 | 32.80141 | 35.04751 | 121 ft | 50 kts | 339° |
| 2026-04-25 14:31 | 32.80466 | 35.04613 | 50 ft | 47 kts | 339° |
| 2026-04-25 14:31 | 32.80755 | 35.04488 | 21 ft | 41 kts | 339° |
| 2026-04-25 14:31 | 32.81028 | 35.04365 | 21 ft | 48 kts | 338° |
| 2026-04-25 14:32 | 32.81312 | 35.04246 | 23 ft | 34 kts | 341° |
| 2026-04-25 14:32 | 32.81457 | 35.04206 | 24 ft | 9 kts | 40° |
| 2026-04-25 14:32 | 32.81485 | 35.04274 | 23 ft | 10 kts | 69° |
| 2026-04-25 14:32 | 32.81508 | 35.04354 | 21 ft | 6 kts | 61° |
| 2026-04-25 14:33 | 32.81525 | 35.04340 | 21 ft | 4 kts | 245° |
| 2026-04-25 14:33 | 32.81517 | 35.04308 | 22 ft | 4 kts | 287° |
| 2026-04-25 14:33 | 32.81542 | 35.04309 | 22 ft | 4 kts | 78° |
| 2026-04-25 14:33 | 32.81542 | 35.04312 | 22 ft | 0 kts | 68° |